This is the latest recevied weather packets stored in our database for station/object N2PUI. If no packets are shown the sender has not sent any weather packets the latest 1 day(s).
| Time | Temp. | Humidity | Pressure | Rain* | Wind** | Luminosity | Snow |
|---|---|---|---|---|---|---|---|
| 1778033718 | 12.22° C | 84% | 1010.7 hPa | 0 mm | - | 0 W/m² | - |
| 1778033113 | 12.78° C | 84% | 1010.6 hPa | 0 mm | - | 0 W/m² | - |
| 1778031902 | 13.33° C | 84% | 1010 hPa | 0 mm | - | 0 W/m² | - |
| 1778031597 | 13.33° C | 84% | 1010 hPa | 0 mm | - | 0 W/m² | - |
| 1778031295 | 13.89° C | 84% | 1010 hPa | 0 mm | - | 0 W/m² | - |
| 1778030991 | 13.89° C | 84% | 1009.6 hPa | 0 mm | - | 0 W/m² | - |
| 1778030688 | 14.44° C | 84% | 1009.5 hPa | 0 mm | - | 0 W/m² | - |
| 1778030385 | 14.44° C | 84% | 1009.4 hPa | 0 mm | - | 0 W/m² | - |
| 1778029779 | 15.56° C | 86% | 1009 hPa | 0 mm | - | 0 W/m² | - |
| 1778029174 | 15.56° C | 85% | 1009 hPa | 0 mm | - | 0 W/m² | - |
| 1778028872 | 15.56° C | 85% | 1008.6 hPa | 0 mm | - | 0 W/m² | - |
| 1778028265 | 15.56° C | 85% | 1008.7 hPa | 0 mm | - | 0 W/m² | - |
| 1778027354 | 15.56° C | 86% | 1008.5 hPa | 0 mm | - | 0 W/m² | - |
| 1778027050 | 16.11° C | 86% | 1008.6 hPa | 0 mm | - | 0 W/m² | - |
| 1778026140 | 16.11° C | 86% | 1008 hPa | 0 mm | - | 0 W/m² | - |
| 1778025838 | 16.11° C | 86% | 1008.2 hPa | 0 mm | - | 1 W/m² | - |
| 1778024323 | 16.67° C | 85% | 1007.6 hPa | 0 mm | - | 14 W/m² | - |
| 1778022508 | 17.22° C | 83% | 1007.6 hPa | 1.78 mm | - | 23 W/m² | - |
| 1778022205 | 17.22° C | 82% | 1007.3 hPa | 0 mm | - | 18 W/m² | - |
| 1778021294 | 17.78° C | 80% | 1007.8 hPa | 0 mm | - | 12 W/m² | - |
| 1778018264 | 18.89° C | 77% | 1006.9 hPa | 0 mm | - | 38 W/m² | - |
| 1778017356 | 18.89° C | 77% | 1006.8 hPa | 0 mm | - | 196 W/m² | - |
| 1778015841 | 16.67° C | 83% | 1006.8 hPa | 0 mm | - | 289 W/m² | - |
| 1778014023 | 16.11° C | 89% | 1006.7 hPa | 0 mm | - | 351 W/m² | - |
| 1778012501 | 15.56° C | 87% | 1007.3 hPa | 0 mm | - | 108 W/m² | - |
* Rain latest hour (hover to see other rain measurements)
** Current wind speed in m/s (hover to see current wind gust speed)